createdAt,value
2022-09-23T00:00:47.159Z,0.00
2022-09-23T00:01:47.173Z,0.00
2022-09-23T00:02:47.195Z,0.00
2022-09-23T00:03:47.129Z,0.00
2022-09-23T00:04:47.086Z,0.00
2022-09-23T00:05:47.099Z,0.00
2022-09-23T00:06:47.058Z,0.00
2022-09-23T00:07:47.070Z,0.00
2022-09-23T00:08:47.039Z,0.00
2022-09-23T00:09:47.038Z,0.00
2022-09-23T00:10:47.009Z,0.00
2022-09-23T00:11:47.029Z,0.00
2022-09-23T00:12:46.980Z,0.00
2022-09-23T00:13:47.000Z,0.00
2022-09-23T00:14:46.950Z,0.00
2022-09-23T00:15:46.984Z,0.00
2022-09-23T00:16:47.074Z,0.00
2022-09-23T00:17:47.034Z,0.00
2022-09-23T00:18:46.928Z,0.00
2022-09-23T00:19:46.893Z,0.00
2022-09-23T00:20:46.919Z,0.00
2022-09-23T00:21:46.892Z,0.00
2022-09-23T00:22:46.852Z,0.00
2022-09-23T00:23:46.885Z,0.00
2022-09-23T00:24:46.835Z,0.00
2022-09-23T00:25:46.823Z,0.00
2022-09-23T00:26:46.883Z,0.00
2022-09-23T00:27:46.794Z,0.00
2022-09-23T00:28:46.783Z,0.00
2022-09-23T00:29:46.802Z,0.00
2022-09-23T00:30:46.808Z,0.00
2022-09-23T00:31:46.758Z,0.00
2022-09-23T00:32:46.743Z,0.00
2022-09-23T00:33:46.727Z,0.00
2022-09-23T00:34:46.726Z,0.00
2022-09-23T00:35:46.729Z,0.00
2022-09-23T00:36:46.735Z,0.00
2022-09-23T00:37:46.677Z,0.00
2022-09-23T00:38:46.654Z,0.00
2022-09-23T00:39:46.686Z,0.00
2022-09-23T00:40:46.755Z,0.00
2022-09-23T00:41:46.759Z,0.00
2022-09-23T00:42:46.618Z,0.00
2022-09-23T00:43:46.597Z,0.00
2022-09-23T00:44:46.598Z,0.00
2022-09-23T00:45:46.633Z,0.00
2022-09-23T00:46:46.560Z,0.00
2022-09-23T00:47:46.557Z,0.00
2022-09-23T00:48:46.548Z,0.00
2022-09-23T00:49:46.510Z,0.00
2022-09-23T00:50:46.510Z,0.00
2022-09-23T00:51:46.515Z,0.00
2022-09-23T00:52:46.489Z,0.00
2022-09-23T00:53:46.572Z,0.00
2022-09-23T00:54:46.456Z,0.00
2022-09-23T00:55:46.485Z,0.00
2022-09-23T00:56:46.436Z,0.00
2022-09-23T00:57:46.421Z,0.00
2022-09-23T00:58:46.399Z,0.00
2022-09-23T00:59:46.439Z,0.00
2022-09-23T01:00:46.357Z,0.00
2022-09-23T01:01:46.431Z,0.00
2022-09-23T01:02:46.425Z,0.00
2022-09-23T01:03:46.341Z,0.00
2022-09-23T01:04:46.341Z,0.00
2022-09-23T01:05:47.311Z,0.00
2022-09-23T01:06:46.334Z,0.00
2022-09-23T01:07:46.314Z,0.00
2022-09-23T01:08:46.297Z,0.00
2022-09-23T01:09:46.265Z,0.00
2022-09-23T01:10:46.264Z,0.00
2022-09-23T01:11:46.267Z,0.00
2022-09-23T01:12:46.246Z,0.00
2022-09-23T01:13:46.264Z,0.00
2022-09-23T01:14:46.211Z,0.00
2022-09-23T01:15:46.248Z,0.00
2022-09-23T01:16:46.247Z,0.00
2022-09-23T01:17:46.292Z,0.00
2022-09-23T01:18:46.188Z,0.00
2022-09-23T01:19:46.137Z,0.00
2022-09-23T01:20:46.141Z,0.00
2022-09-23T01:21:46.108Z,0.00
2022-09-23T01:22:46.126Z,0.00
2022-09-23T01:23:46.208Z,0.00
2022-09-23T01:24:46.119Z,0.00
2022-09-23T01:25:46.057Z,0.00
2022-09-23T01:26:46.050Z,0.00
2022-09-23T01:27:46.071Z,0.00
2022-09-23T01:28:46.028Z,0.00
2022-09-23T01:29:46.149Z,0.00
2022-09-23T01:30:47.067Z,0.00
2022-09-23T01:31:46.025Z,0.00
2022-09-23T01:32:49.918Z,0.00
2022-09-23T01:33:46.046Z,0.00
2022-09-23T01:34:45.991Z,0.00
2022-09-23T01:35:45.958Z,0.00
2022-09-23T01:36:46.880Z,0.00
2022-09-23T01:37:45.922Z,0.00
2022-09-23T01:38:45.901Z,0.00
2022-09-23T01:39:45.884Z,0.00
2022-09-23T01:40:45.948Z,0.00
2022-09-23T01:41:45.919Z,0.00
2022-09-23T01:42:46.802Z,0.00
2022-09-23T01:43:45.851Z,0.00
2022-09-23T01:44:45.825Z,0.00
2022-09-23T01:45:45.803Z,0.00
2022-09-23T01:46:45.793Z,0.00
2022-09-23T01:47:45.802Z,0.00
2022-09-23T01:48:45.853Z,0.00
2022-09-23T01:49:45.726Z,0.00
2022-09-23T01:50:45.714Z,0.00
2022-09-23T01:51:45.764Z,0.00
2022-09-23T01:52:45.705Z,0.00
2022-09-23T01:53:45.741Z,0.00
2022-09-23T01:54:45.698Z,0.00
2022-09-23T01:55:46.638Z,0.00
2022-09-23T01:56:45.675Z,0.00
2022-09-23T01:57:45.665Z,0.00
2022-09-23T01:58:45.659Z,0.00
2022-09-23T01:59:45.750Z,0.00
2022-09-23T02:00:45.634Z,0.00
2022-09-23T02:01:45.664Z,0.00
2022-09-23T02:02:45.640Z,0.00
2022-09-23T02:03:45.575Z,0.00
2022-09-23T02:04:45.575Z,0.00
2022-09-23T02:05:45.590Z,0.00
2022-09-23T02:06:45.558Z,0.00
2022-09-23T02:07:45.518Z,0.00
2022-09-23T02:08:45.510Z,0.00
2022-09-23T02:09:45.532Z,0.00
2022-09-23T02:10:45.483Z,0.00
2022-09-23T02:11:45.559Z,0.00
2022-09-23T02:12:45.477Z,0.00
2022-09-23T02:13:45.454Z,0.00
2022-09-23T02:14:45.441Z,0.00
2022-09-23T02:15:45.421Z,0.00
2022-09-23T02:16:45.465Z,0.00
2022-09-23T02:17:45.412Z,0.00
2022-09-23T02:18:45.392Z,0.00
2022-09-23T02:19:45.372Z,0.00
2022-09-23T02:20:45.353Z,0.00
2022-09-23T02:21:45.341Z,0.00
2022-09-23T02:22:45.332Z,0.00
2022-09-23T02:23:45.353Z,0.00
2022-09-23T02:24:45.334Z,0.00
2022-09-23T02:25:45.294Z,0.00
2022-09-23T02:26:45.264Z,0.00
2022-09-23T02:27:45.272Z,0.00
2022-09-23T02:28:45.244Z,0.00
2022-09-23T02:29:45.254Z,0.00
2022-09-23T02:30:45.232Z,0.00
2022-09-23T02:31:45.239Z,0.00
2022-09-23T02:32:45.214Z,0.00
2022-09-23T02:33:45.203Z,0.00
2022-09-23T02:34:45.185Z,0.00
2022-09-23T02:35:45.289Z,0.00
2022-09-23T02:36:45.157Z,0.00
2022-09-23T02:37:45.115Z,0.00
2022-09-23T02:38:45.139Z,0.00
2022-09-23T02:39:45.115Z,0.00
2022-09-23T02:40:45.158Z,0.00
2022-09-23T02:41:45.130Z,0.00
2022-09-23T02:42:45.058Z,0.00
2022-09-23T02:43:45.058Z,0.00
2022-09-23T02:44:45.051Z,0.00
2022-09-23T02:45:45.061Z,0.00
2022-09-23T02:46:45.038Z,0.00
2022-09-23T02:47:45.041Z,0.00
2022-09-23T02:48:45.047Z,0.00
2022-09-23T02:49:45.001Z,0.00
2022-09-23T02:50:44.969Z,0.00
2022-09-23T02:51:44.989Z,0.00
2022-09-23T02:52:44.929Z,0.00
2022-09-23T02:53:44.956Z,0.00
2022-09-23T02:54:44.912Z,0.00
2022-09-23T02:55:44.913Z,0.00
2022-09-23T02:56:44.881Z,0.00
2022-09-23T02:57:44.913Z,0.00
2022-09-23T02:58:44.902Z,0.00
2022-09-23T02:59:44.872Z,0.00
2022-09-23T03:00:44.885Z,0.00
2022-09-23T03:01:44.842Z,0.00
2022-09-23T03:02:44.812Z,0.00
2022-09-23T03:03:44.793Z,0.00
2022-09-23T03:04:44.784Z,0.00
2022-09-23T03:05:44.801Z,0.00
2022-09-23T03:06:48.564Z,0.00
2022-09-23T03:07:44.787Z,0.00
2022-09-23T03:08:44.732Z,0.00
2022-09-23T03:09:44.725Z,0.00
2022-09-23T03:10:44.725Z,0.00
2022-09-23T03:11:44.804Z,0.00
2022-09-23T03:12:44.693Z,0.00
2022-09-23T03:13:44.695Z,0.00
2022-09-23T03:14:44.686Z,0.00
2022-09-23T03:15:44.637Z,0.00
2022-09-23T03:16:44.660Z,0.00
2022-09-23T03:17:44.718Z,0.00
2022-09-23T03:18:44.612Z,0.00
2022-09-23T03:19:44.599Z,0.00
2022-09-23T03:20:44.597Z,0.00
2022-09-23T03:21:44.567Z,0.00
2022-09-23T03:22:48.315Z,0.00
2022-09-23T03:23:44.568Z,0.00
2022-09-23T03:24:44.577Z,0.00
2022-09-23T03:25:44.510Z,0.00
2022-09-23T03:26:44.497Z,0.00
2022-09-23T03:27:44.486Z,0.00
2022-09-23T03:28:44.529Z,0.00
2022-09-23T03:29:44.470Z,0.00
2022-09-23T03:30:45.399Z,0.00
2022-09-23T03:31:44.496Z,0.00
2022-09-23T03:32:44.421Z,0.00
2022-09-23T03:33:44.399Z,0.00
2022-09-23T03:34:44.409Z,0.00
2022-09-23T03:35:44.502Z,0.00
2022-09-23T03:36:44.382Z,0.00
2022-09-23T03:37:44.351Z,0.00
2022-09-23T03:38:44.332Z,0.00
2022-09-23T03:39:44.322Z,0.00
2022-09-23T03:40:44.389Z,0.00
2022-09-23T03:41:44.361Z,0.00
2022-09-23T03:42:44.302Z,0.00
2022-09-23T03:43:44.284Z,0.00
2022-09-23T03:44:44.275Z,0.00
2022-09-23T03:45:44.284Z,0.00
2022-09-23T03:46:44.248Z,0.00
2022-09-23T03:47:44.254Z,0.00
2022-09-23T03:48:44.214Z,0.00
2022-09-23T03:49:44.185Z,0.00
2022-09-23T03:50:44.214Z,0.00
2022-09-23T03:51:44.879Z,0.00
2022-09-23T03:52:44.156Z,0.00
2022-09-23T03:53:44.156Z,0.00
2022-09-23T03:54:44.139Z,0.00
2022-09-23T03:55:44.144Z,0.00
2022-09-23T03:56:44.143Z,0.00
2022-09-23T03:57:44.097Z,0.00
2022-09-23T03:58:44.107Z,0.00
2022-09-23T03:59:44.230Z,0.00
2022-09-23T04:00:44.088Z,0.00
2022-09-23T04:01:44.156Z,0.00
2022-09-23T04:02:44.029Z,0.00
2022-09-23T04:03:44.078Z,0.00
2022-09-23T04:04:44.011Z,0.00
2022-09-23T04:05:44.013Z,0.00
2022-09-23T04:06:44.001Z,0.00
2022-09-23T04:07:43.989Z,0.00
2022-09-23T04:08:43.979Z,0.00
2022-09-23T04:09:43.990Z,0.00
2022-09-23T04:10:43.928Z,0.00
2022-09-23T04:11:43.951Z,0.00
2022-09-23T04:12:43.912Z,0.00
2022-09-23T04:13:43.881Z,0.00
2022-09-23T04:14:43.877Z,0.00
2022-09-23T04:15:43.861Z,0.00
2022-09-23T04:16:43.884Z,0.00
2022-09-23T04:17:43.890Z,0.00
2022-09-23T04:18:43.872Z,0.00
2022-09-23T04:19:43.833Z,0.00
2022-09-23T04:20:43.821Z,0.00
2022-09-23T04:21:43.792Z,0.00
2022-09-23T04:22:43.795Z,0.00
2022-09-23T04:23:43.804Z,0.00
2022-09-23T04:24:43.744Z,0.00
2022-09-23T04:25:43.724Z,0.00
2022-09-23T04:26:43.732Z,0.00
2022-09-23T04:27:43.724Z,0.00
2022-09-23T04:28:43.724Z,0.00
2022-09-23T04:29:43.761Z,0.00
2022-09-23T04:30:43.689Z,0.00
2022-09-23T04:31:43.724Z,0.00
2022-09-23T04:32:43.664Z,0.00
2022-09-23T04:33:43.617Z,0.00
2022-09-23T04:34:43.635Z,0.00
2022-09-23T04:35:43.617Z,0.00
2022-09-23T04:36:43.607Z,0.00
2022-09-23T04:37:43.605Z,0.00
2022-09-23T04:38:43.588Z,0.00
2022-09-23T04:39:43.566Z,1.00
2022-09-23T04:40:43.690Z,1.00
2022-09-23T04:41:43.567Z,1.00
2022-09-23T04:42:43.546Z,0.00
2022-09-23T04:43:43.518Z,0.00
2022-09-23T04:44:43.527Z,2.00
2022-09-23T04:45:43.491Z,2.00
2022-09-23T04:46:43.544Z,2.00
2022-09-23T04:47:43.478Z,0.00
2022-09-23T04:48:43.462Z,0.00
2022-09-23T04:49:43.450Z,4.00
2022-09-23T04:50:43.430Z,2.00
2022-09-23T04:51:43.452Z,2.00
2022-09-23T04:52:43.422Z,6.00
2022-09-23T04:53:43.518Z,5.00
2022-09-23T04:54:43.389Z,7.00
2022-09-23T04:55:43.402Z,15.00
2022-09-23T04:56:43.360Z,13.00
2022-09-23T04:57:43.364Z,20.00
2022-09-23T04:58:43.349Z,14.00
2022-09-23T04:59:43.387Z,27.00
2022-09-23T05:00:43.340Z,28.00
2022-09-23T05:01:43.410Z,31.00
2022-09-23T05:02:43.275Z,38.00
2022-09-23T05:03:43.272Z,45.00
2022-09-23T05:04:43.312Z,51.00
2022-09-23T05:05:43.302Z,60.00
2022-09-23T05:06:43.239Z,69.00
2022-09-23T05:07:43.234Z,75.00
2022-09-23T05:08:43.211Z,88.00
2022-09-23T05:09:43.196Z,109.00
2022-09-23T05:10:43.216Z,123.00
2022-09-23T05:11:43.202Z,138.00
2022-09-23T05:12:44.123Z,152.00
2022-09-23T05:13:43.155Z,179.00
2022-09-23T05:14:43.150Z,205.00
2022-09-23T05:15:43.146Z,217.00
2022-09-23T05:16:43.198Z,243.00
2022-09-23T05:17:43.186Z,265.00
2022-09-23T05:18:43.095Z,293.00
2022-09-23T05:19:43.086Z,317.00
2022-09-23T05:20:43.054Z,337.00
2022-09-23T05:21:43.054Z,365.00
2022-09-23T05:22:43.072Z,401.00
2022-09-23T05:23:43.037Z,431.00
2022-09-23T05:24:43.036Z,469.00
2022-09-23T05:25:43.981Z,493.00
2022-09-23T05:26:42.999Z,536.00
2022-09-23T05:27:42.962Z,572.00
2022-09-23T05:28:42.962Z,624.00
2022-09-23T05:29:42.967Z,673.00
2022-09-23T05:30:42.930Z,707.00
2022-09-23T05:31:43.015Z,766.00
2022-09-23T05:32:42.944Z,812.00
2022-09-23T05:33:42.880Z,875.00
2022-09-23T05:34:42.873Z,923.00
2022-09-23T05:35:42.912Z,971.00
2022-09-23T05:36:42.904Z,1032.00
2022-09-23T05:37:42.852Z,1093.00
2022-09-23T05:38:42.840Z,1146.00
2022-09-23T05:39:42.830Z,1199.00
2022-09-23T05:40:42.901Z,1276.00
2022-09-23T05:41:42.955Z,1333.00
2022-09-23T05:42:42.811Z,1392.00
2022-09-23T05:43:42.802Z,1460.00
2022-09-23T05:44:42.773Z,1515.00
2022-09-23T05:45:42.782Z,1583.00
2022-09-23T05:46:42.820Z,1631.00
2022-09-23T05:47:42.799Z,1702.00
2022-09-23T05:48:42.734Z,1766.00
2022-09-23T05:49:59.232Z,1827.00
2022-09-23T05:50:43.693Z,1886.00
2022-09-23T05:51:42.707Z,1956.00
2022-09-23T05:52:42.673Z,2025.00
2022-09-23T05:53:42.686Z,2098.00
2022-09-23T05:54:42.634Z,2172.00
2022-09-23T05:55:42.636Z,2219.00
2022-09-23T05:56:42.640Z,2279.00
2022-09-23T05:57:42.637Z,2348.00
2022-09-23T05:58:42.625Z,2389.00
2022-09-23T05:59:42.607Z,2434.00
2022-09-23T06:00:42.639Z,2462.00
2022-09-23T06:01:42.626Z,2524.00
2022-09-23T06:02:42.610Z,2607.00
2022-09-23T06:03:42.538Z,2672.00
2022-09-23T06:04:42.528Z,2724.00
2022-09-23T06:05:42.538Z,2787.00
2022-09-23T06:06:42.498Z,2840.00
2022-09-23T06:07:42.519Z,2885.00
2022-09-23T06:08:42.469Z,2898.00
2022-09-23T06:09:42.457Z,2917.00
2022-09-23T06:10:42.470Z,2942.00
2022-09-23T06:11:42.581Z,2947.00
2022-09-23T06:12:42.432Z,2974.00
2022-09-23T06:13:42.419Z,3002.00
2022-09-23T06:14:42.417Z,3005.00
2022-09-23T06:15:42.425Z,3044.00
2022-09-23T06:16:42.371Z,3093.00
2022-09-23T06:17:42.504Z,3146.00
2022-09-23T06:18:42.370Z,3221.00
2022-09-23T06:19:42.356Z,3245.00
2022-09-23T06:20:42.332Z,3316.00
2022-09-23T06:21:42.365Z,3383.00
2022-09-23T06:22:42.305Z,3466.00
2022-09-23T06:23:43.333Z,3508.00
2022-09-23T06:24:42.295Z,3586.00
2022-09-23T06:25:42.283Z,3698.00
2022-09-23T06:26:42.235Z,3774.00
2022-09-23T06:27:42.235Z,3790.00
2022-09-23T06:28:42.234Z,3872.00
2022-09-23T06:29:42.324Z,3912.00
2022-09-23T06:30:42.224Z,4027.00
2022-09-23T06:31:42.319Z,4157.00
2022-09-23T06:32:42.143Z,4295.00
2022-09-23T06:33:43.149Z,4404.00
2022-09-23T06:34:50.610Z,4579.00
2022-09-23T06:35:52.540Z,4665.00
2022-09-23T06:36:45.577Z,4755.00
2022-09-23T06:37:42.107Z,4807.00
2022-09-23T06:38:42.102Z,4852.00
2022-09-23T06:39:42.096Z,5010.00
2022-09-23T06:40:42.095Z,5128.00
2022-09-23T06:41:42.107Z,5198.00
2022-09-23T06:42:42.048Z,5308.00
2022-09-23T06:43:42.029Z,5441.00
2022-09-23T06:44:41.992Z,5494.00
2022-09-23T06:45:41.999Z,5530.00
2022-09-23T06:46:42.089Z,5668.00
2022-09-23T06:47:42.008Z,5816.00
2022-09-23T06:48:46.006Z,5926.00
2022-09-23T06:49:41.938Z,6104.00
2022-09-23T06:50:41.900Z,6226.00
2022-09-23T06:51:41.942Z,6368.00
2022-09-23T06:52:41.911Z,6520.00
2022-09-23T06:53:45.971Z,6640.00
2022-09-23T06:54:41.902Z,6701.00
2022-09-23T06:55:41.875Z,6847.00
2022-09-23T06:56:41.871Z,6990.00
2022-09-23T06:57:41.862Z,7038.00
2022-09-23T06:58:41.852Z,7190.00
2022-09-23T06:59:42.780Z,7266.00
2022-09-23T07:00:41.803Z,7394.00
2022-09-23T07:01:42.008Z,7365.00
2022-09-23T07:02:41.980Z,7428.00
2022-09-23T07:03:41.761Z,7598.00
2022-09-23T07:04:41.754Z,7825.00
2022-09-23T07:05:41.774Z,7990.00
2022-09-23T07:06:42.695Z,8147.00
2022-09-23T07:07:41.714Z,8233.00
2022-09-23T07:08:41.694Z,8309.00
2022-09-23T07:09:41.722Z,8479.00
2022-09-23T07:10:41.725Z,8595.00
2022-09-23T07:11:41.775Z,8576.00
2022-09-23T07:12:41.676Z,8987.00
2022-09-23T07:13:41.637Z,9135.00
2022-09-23T07:14:41.617Z,9254.00
2022-09-23T07:15:42.612Z,9378.00
2022-09-23T07:16:41.595Z,9475.00
2022-09-23T07:17:41.708Z,9534.00
2022-09-23T07:18:41.579Z,9630.00
2022-09-23T07:19:41.564Z,9657.00
2022-09-23T07:20:41.570Z,9661.00
2022-09-23T07:21:41.527Z,9754.00
2022-09-23T07:22:41.509Z,9854.00
2022-09-23T07:23:41.522Z,9935.00
2022-09-23T07:24:41.490Z,10077.00
2022-09-23T07:25:41.487Z,10023.00
2022-09-23T07:26:45.605Z,10101.00
2022-09-23T07:27:41.481Z,10131.00
2022-09-23T07:28:41.431Z,10191.00
2022-09-23T07:29:48.022Z,10167.00
2022-09-23T07:30:53.546Z,10256.00
2022-09-23T07:31:42.452Z,10154.00
2022-09-23T07:32:48.396Z,10154.00
2022-09-23T07:33:42.399Z,10134.00
2022-09-23T07:34:41.393Z,10123.00
2022-09-23T07:35:41.735Z,10111.00
2022-09-23T07:36:41.408Z,10071.00
2022-09-23T07:37:41.314Z,9617.00
2022-09-23T07:38:45.271Z,9895.00
2022-09-23T07:39:41.311Z,10140.00
2022-09-23T07:40:41.331Z,10175.00
2022-09-23T07:41:41.303Z,10232.00
2022-09-23T07:42:41.326Z,10020.00
2022-09-23T07:43:41.249Z,10007.00
2022-09-23T07:44:41.236Z,9921.00
2022-09-23T07:45:41.230Z,9873.00
2022-09-23T07:46:41.272Z,9880.00
2022-09-23T07:47:41.299Z,9868.00
2022-09-23T07:48:41.178Z,9889.00
2022-09-23T07:49:41.177Z,9860.00
2022-09-23T07:50:41.151Z,9814.00
2022-09-23T07:51:41.149Z,9894.00
2022-09-23T07:52:41.119Z,9777.00
2022-09-23T07:53:41.206Z,9808.00
2022-09-23T07:54:41.110Z,9796.00
2022-09-23T07:55:41.130Z,9740.00
2022-09-23T07:56:42.049Z,9715.00
2022-09-23T07:57:41.062Z,9683.00
2022-09-23T07:58:41.041Z,9661.00
2022-09-23T07:59:41.080Z,9692.00
2022-09-23T08:00:41.991Z,9645.00
2022-09-23T08:01:41.082Z,9552.00
2022-09-23T08:02:41.077Z,9456.00
2022-09-23T08:03:40.986Z,9341.00
2022-09-23T08:04:40.992Z,9252.00
2022-09-23T08:05:40.996Z,9271.00
2022-09-23T08:06:40.972Z,9299.00
2022-09-23T08:07:41.006Z,9381.00
2022-09-23T08:08:40.927Z,9457.00
2022-09-23T08:09:40.929Z,9551.00
2022-09-23T08:10:40.901Z,9606.00
2022-09-23T08:11:40.907Z,9712.00
2022-09-23T08:12:40.885Z,9784.00
2022-09-23T08:13:40.868Z,9854.00
2022-09-23T08:14:40.867Z,9947.00
2022-09-23T08:15:40.896Z,10027.00
2022-09-23T08:16:40.834Z,10130.00
2022-09-23T08:17:40.847Z,10265.00
2022-09-23T08:18:40.791Z,10384.00
2022-09-23T08:19:40.796Z,10503.00
2022-09-23T08:20:43.701Z,10671.00
2022-09-23T08:21:41.925Z,10890.00
2022-09-23T08:22:40.769Z,11131.00
2022-09-23T08:23:40.811Z,11246.00
2022-09-23T08:24:40.710Z,11392.00
2022-09-23T08:25:41.683Z,11722.00
2022-09-23T08:26:40.710Z,11867.00
2022-09-23T08:27:40.692Z,12037.00
2022-09-23T08:28:40.675Z,12066.00
2022-09-23T08:29:40.713Z,12155.00
2022-09-23T08:30:40.701Z,12208.00
2022-09-23T08:31:40.651Z,12270.00
2022-09-23T08:32:40.634Z,12123.00
2022-09-23T08:33:40.602Z,12130.00
2022-09-23T08:34:40.593Z,12242.00
2022-09-23T08:35:40.614Z,12370.00
2022-09-23T08:36:40.591Z,12466.00
2022-09-23T08:37:40.609Z,12530.00
2022-09-23T08:38:40.545Z,12481.00
2022-09-23T08:39:40.566Z,12487.00
2022-09-23T08:40:40.562Z,12397.00
2022-09-23T08:41:40.631Z,12318.00
2022-09-23T08:42:40.476Z,12161.00
2022-09-23T08:43:40.488Z,12123.00
2022-09-23T08:44:40.450Z,12088.00
2022-09-23T08:45:40.478Z,12110.00
2022-09-23T08:46:40.458Z,12132.00
2022-09-23T08:47:40.450Z,12038.00
2022-09-23T08:48:40.421Z,12045.00
2022-09-23T08:49:40.399Z,11928.00
2022-09-23T08:50:40.453Z,11824.00
2022-09-23T08:51:40.382Z,11844.00
2022-09-23T08:52:40.351Z,11771.00
2022-09-23T08:53:40.370Z,11674.00
2022-09-23T08:54:40.330Z,11611.00
2022-09-23T08:55:40.312Z,11491.00
2022-09-23T08:56:40.302Z,11472.00
2022-09-23T08:57:40.335Z,11469.00
2022-09-23T08:58:40.282Z,11443.00
2022-09-23T08:59:40.294Z,11381.00
2022-09-23T09:00:40.246Z,11324.00
2022-09-23T09:01:40.315Z,11218.00
2022-09-23T09:02:40.261Z,11214.00
2022-09-23T09:03:40.224Z,11277.00
2022-09-23T09:04:40.195Z,11263.00
2022-09-23T09:05:40.226Z,11337.00
2022-09-23T09:06:52.383Z,11304.00
2022-09-23T09:07:41.186Z,11316.00
2022-09-23T09:08:40.222Z,11237.00
2022-09-23T09:09:40.150Z,11332.00
2022-09-23T09:10:40.130Z,11409.00
2022-09-23T09:11:40.137Z,11552.00
2022-09-23T09:12:40.101Z,11526.00
2022-09-23T09:13:40.085Z,11614.00
2022-09-23T09:14:40.069Z,11509.00
2022-09-23T09:15:40.105Z,11487.00
2022-09-23T09:16:58.838Z,11487.00
2022-09-23T09:17:41.101Z,11488.00
2022-09-23T09:18:40.023Z,11584.00
2022-09-23T09:19:40.009Z,11586.00
2022-09-23T09:20:39.981Z,11587.00
2022-09-23T09:21:39.984Z,11663.00
2022-09-23T09:22:39.992Z,11611.00
2022-09-23T09:23:40.082Z,11531.00
2022-09-23T09:24:39.953Z,11522.00
2022-09-23T09:25:39.914Z,11715.00
2022-09-23T09:26:40.875Z,11895.00
2022-09-23T09:27:39.946Z,11867.00
2022-09-23T09:28:39.905Z,11869.00
2022-09-23T09:29:40.131Z,11899.00
2022-09-23T09:30:39.981Z,11799.00
2022-09-23T09:31:39.941Z,11726.00
2022-09-23T09:32:39.846Z,11820.00
2022-09-23T09:33:39.861Z,11857.00
2022-09-23T09:34:39.816Z,11857.00
2022-09-23T09:35:39.878Z,11875.00
2022-09-23T09:36:39.794Z,11830.00
2022-09-23T09:37:39.779Z,11816.00
2022-09-23T09:38:39.770Z,11786.00
2022-09-23T09:39:39.792Z,11790.00
2022-09-23T09:40:39.811Z,11754.00
2022-09-23T09:41:39.788Z,11747.00
2022-09-23T09:42:39.707Z,11732.00
2022-09-23T09:43:43.441Z,11771.00
2022-09-23T09:44:39.711Z,11777.00
2022-09-23T09:45:39.672Z,11824.00
2022-09-23T09:46:39.728Z,11865.00
2022-09-23T09:47:39.676Z,11911.00
2022-09-23T09:48:39.646Z,12016.00
2022-09-23T09:49:40.682Z,12066.00
2022-09-23T09:50:39.604Z,12157.00
2022-09-23T09:51:39.604Z,12231.00
2022-09-23T09:52:42.243Z,12267.00
2022-09-23T09:53:39.533Z,12350.00
2022-09-23T09:54:39.491Z,12444.00
2022-09-23T09:55:39.480Z,12495.00
2022-09-23T09:56:39.501Z,12529.00
2022-09-23T09:57:39.461Z,12593.00
2022-09-23T09:58:39.485Z,12646.00
2022-09-23T09:59:39.582Z,12708.00
2022-09-23T10:00:40.394Z,12749.00
2022-09-23T10:01:39.459Z,12747.00
2022-09-23T10:02:39.423Z,12759.00
2022-09-23T10:03:39.399Z,12769.00
2022-09-23T10:04:40.439Z,12776.00
2022-09-23T10:05:39.389Z,12709.00
2022-09-23T10:06:40.296Z,12607.00
2022-09-23T10:07:40.304Z,12559.00
2022-09-23T10:08:39.332Z,12564.00
2022-09-23T10:09:39.319Z,12603.00
2022-09-23T10:10:39.303Z,12548.00
2022-09-23T10:11:39.359Z,12587.00
2022-09-23T10:12:39.282Z,12600.00
2022-09-23T10:13:39.260Z,12595.00
2022-09-23T10:14:39.243Z,12612.00
2022-09-23T10:15:42.482Z,12610.00
2022-09-23T10:16:40.273Z,12613.00
2022-09-23T10:17:39.204Z,12608.00
2022-09-23T10:18:39.203Z,12604.00
2022-09-23T10:19:39.187Z,12606.00
2022-09-23T10:20:39.204Z,12568.00
2022-09-23T10:21:39.162Z,12578.00
2022-09-23T10:22:39.285Z,12595.00
2022-09-23T10:23:39.172Z,12593.00
2022-09-23T10:24:39.149Z,12621.00
2022-09-23T10:25:39.109Z,12644.00
2022-09-23T10:26:39.078Z,12694.00
2022-09-23T10:27:39.133Z,12735.00
2022-09-23T10:28:39.088Z,12740.00
2022-09-23T10:29:39.077Z,12752.00
2022-09-23T10:30:39.299Z,12716.00
2022-09-23T10:31:39.030Z,12739.00
2022-09-23T10:32:39.011Z,12683.00
2022-09-23T10:33:38.995Z,12619.00
2022-09-23T10:34:39.005Z,12571.00
2022-09-23T10:35:38.973Z,12522.00
2022-09-23T10:36:42.449Z,12511.00
2022-09-23T10:37:39.974Z,12512.00
2022-09-23T10:38:38.927Z,12542.00
2022-09-23T10:39:38.937Z,12598.00
2022-09-23T10:40:39.160Z,12678.00
2022-09-23T10:41:39.942Z,12763.00
2022-09-23T10:42:38.870Z,12822.00
2022-09-23T10:43:38.883Z,12872.00
2022-09-23T10:44:38.874Z,12864.00
2022-09-23T10:45:41.232Z,12868.00
2022-09-23T10:46:39.004Z,12842.00
2022-09-23T10:47:38.814Z,12846.00
2022-09-23T10:48:38.815Z,12841.00
2022-09-23T10:49:38.805Z,12855.00
2022-09-23T10:50:38.788Z,12862.00
2022-09-23T10:51:38.836Z,12892.00
2022-09-23T10:52:38.818Z,12873.00
2022-09-23T10:53:38.753Z,12862.00
2022-09-23T10:54:38.779Z,12858.00
2022-09-23T10:55:38.729Z,12851.00
2022-09-23T10:56:38.692Z,12818.00
2022-09-23T10:57:38.703Z,12797.00
2022-09-23T10:58:38.761Z,12765.00
2022-09-23T10:59:38.656Z,12735.00
2022-09-23T11:00:38.677Z,12698.00
2022-09-23T11:01:38.780Z,12675.00
2022-09-23T11:02:38.636Z,12666.00
2022-09-23T11:03:38.679Z,12723.00
2022-09-23T11:04:38.710Z,12792.00
2022-09-23T11:05:38.612Z,12832.00
2022-09-23T11:06:38.623Z,12916.00
2022-09-23T11:07:38.572Z,13006.00
2022-09-23T11:08:38.557Z,13094.00
2022-09-23T11:09:38.547Z,13204.00
2022-09-23T11:10:46.757Z,13309.00
2022-09-23T11:11:39.544Z,13398.00
2022-09-23T11:12:38.508Z,13540.00
2022-09-23T11:13:38.535Z,13690.00
2022-09-23T11:14:38.478Z,13849.00
2022-09-23T11:15:38.560Z,14028.00
2022-09-23T11:16:38.637Z,14272.00
2022-09-23T11:17:38.445Z,14396.00
2022-09-23T11:18:38.431Z,14367.00
2022-09-23T11:19:41.122Z,14375.00
2022-09-23T11:20:39.421Z,14424.00
2022-09-23T11:21:38.421Z,14410.00
2022-09-23T11:22:39.374Z,14439.00
2022-09-23T11:23:38.368Z,14481.00
2022-09-23T11:24:38.348Z,14576.00
2022-09-23T11:25:38.338Z,14676.00
2022-09-23T11:26:38.392Z,14693.00
2022-09-23T11:27:38.336Z,14716.00
2022-09-23T11:28:38.398Z,14706.00
2022-09-23T11:29:38.308Z,14661.00
2022-09-23T11:30:38.339Z,14562.00
2022-09-23T11:31:38.323Z,14485.00
2022-09-23T11:32:38.278Z,14381.00
2022-09-23T11:33:38.231Z,14311.00
2022-09-23T11:34:38.283Z,14256.00
2022-09-23T11:35:38.213Z,14225.00
2022-09-23T11:36:38.222Z,14256.00
2022-09-23T11:37:38.223Z,14378.00
2022-09-23T11:38:38.186Z,14570.00
2022-09-23T11:39:38.238Z,15048.00
2022-09-23T11:40:41.077Z,15447.00
2022-09-23T11:41:39.144Z,15827.00
2022-09-23T11:42:38.161Z,15935.00
2022-09-23T11:43:38.146Z,15908.00
2022-09-23T11:44:38.107Z,16180.00
2022-09-23T11:45:38.176Z,16123.00
2022-09-23T11:46:38.107Z,15919.00
2022-09-23T11:47:39.874Z,15799.00
2022-09-23T11:48:38.084Z,15733.00
2022-09-23T11:49:38.102Z,15383.00
2022-09-23T11:50:38.039Z,15260.00
2022-09-23T11:51:38.044Z,15092.00
2022-09-23T11:52:38.035Z,15113.00
2022-09-23T11:53:37.994Z,15232.00
2022-09-23T11:54:37.996Z,15152.00
2022-09-23T11:55:39.449Z,15106.00
2022-09-23T11:56:41.468Z,14854.00
2022-09-23T11:57:47.595Z,14717.00
2022-09-23T11:59:40.977Z,14614.00
2022-09-23T12:00:37.969Z,14635.00
2022-09-23T12:01:39.062Z,14602.00
2022-09-23T12:02:37.972Z,14629.00
2022-09-23T12:03:43.921Z,14632.00
2022-09-23T12:04:50.403Z,14644.00
2022-09-23T12:05:39.005Z,14730.00
2022-09-23T12:06:37.842Z,14626.00
2022-09-23T12:07:37.823Z,14661.00
2022-09-23T12:08:37.844Z,14653.00
2022-09-23T12:09:58.939Z,14499.00
2022-09-23T12:10:38.805Z,14395.00
2022-09-23T12:11:37.767Z,14378.00
2022-09-23T12:12:37.769Z,14270.00
2022-09-23T12:13:37.754Z,14160.00
2022-09-23T12:14:37.737Z,14106.00
2022-09-23T12:15:37.719Z,14084.00
2022-09-23T12:16:37.856Z,14065.00
2022-09-23T12:17:37.704Z,14061.00
2022-09-23T12:18:37.680Z,14105.00
2022-09-23T12:19:37.669Z,14171.00
2022-09-23T12:20:37.663Z,14217.00
2022-09-23T12:21:53.057Z,14267.00
2022-09-23T12:22:38.662Z,14320.00
2022-09-23T12:23:37.624Z,14386.00
2022-09-23T12:24:37.610Z,14445.00
2022-09-23T12:25:37.583Z,14489.00
2022-09-23T12:26:37.611Z,14537.00
2022-09-23T12:27:37.589Z,14562.00